Time;durP1;ratioP1;P1;durP2;ratioP2;P2;SDS_P1;SDS_P2;PMS_P1;PMS_P2;Temp;Humidity;BMP_temperature;BMP_pressure;BME280_temperature;BME280_humidity;BME280_pressure;Samples;Min_cycle;Max_cycle;Signal;HPM_P1;HPM_P2
2022/09/16 00:02:04;;;;;;;4.33;1.43;;;14.60;99.90;;;;;;5075784;28;20497;-84
2022/09/16 00:04:31;;;;;;;6.57;1.10;;;14.40;99.90;;;;;;5075050;28;20474;-83
2022/09/16 00:06:57;;;;;;;5.17;1.27;;;14.40;99.90;;;;;;5076662;28;20448;-84
2022/09/16 00:09:24;;;;;;;4.40;1.30;;;14.50;99.90;;;;;;5075718;28;20843;-84
2022/09/16 00:11:51;;;;;;;3.60;1.33;;;14.40;99.90;;;;;;5075408;28;20480;-83
2022/09/16 00:14:19;;;;;;;4.67;1.63;;;14.50;99.90;;;;;;5083341;28;20483;-85
2022/09/16 00:16:46;;;;;;;6.43;1.67;;;14.60;99.90;;;;;;5085541;28;20515;-83
2022/09/16 00:19:13;;;;;;;3.70;1.10;;;14.50;99.90;;;;;;5085001;28;20551;-84
2022/09/16 00:21:39;;;;;;;3.07;1.37;;;14.60;99.90;;;;;;5085486;28;20547;-84
2022/09/16 00:24:07;;;;;;;2.07;1.00;;;14.60;99.90;;;;;;5083318;28;20464;-84
2022/09/16 00:26:34;;;;;;;3.03;1.43;;;14.60;99.90;;;;;;5084556;28;20501;-84
2022/09/16 00:29:01;;;;;;;4.10;1.80;;;14.70;99.90;;;;;;5081701;28;20459;-83
2022/09/16 00:31:29;;;;;;;6.70;1.90;;;14.50;99.90;;;;;;5080384;28;20450;-84
2022/09/16 00:33:56;;;;;;;4.37;1.77;;;14.60;99.90;;;;;;5076727;28;20530;-84
2022/09/16 00:36:23;;;;;;;5.57;1.40;;;14.60;99.90;;;;;;5080541;28;20473;-83
2022/09/16 00:38:51;;;;;;;5.37;1.80;;;14.60;99.90;;;;;;5081062;28;20507;-83
2022/09/16 00:41:20;;;;;;;3.87;1.67;;;14.60;99.90;;;;;;5080704;28;20520;-83
2022/09/16 00:43:54;;;;;;;2.37;1.30;;;14.70;99.90;;;;;;5079112;28;20800;-84
2022/09/16 00:46:27;;;;;;;4.80;1.67;;;14.70;99.90;;;;;;5080040;28;20488;-84
2022/09/16 00:48:56;;;;;;;3.70;1.63;;;14.70;99.90;;;;;;5078773;28;20532;-84
2022/09/16 00:51:24;;;;;;;5.37;1.70;;;14.60;99.90;;;;;;5078906;28;20450;-83
2022/09/16 00:53:56;;;;;;;5.60;2.07;;;14.50;99.90;;;;;;5078496;28;20525;-83
2022/09/16 00:56:26;;;;;;;4.67;2.00;;;14.50;99.90;;;;;;5078210;28;20521;-83
2022/09/16 00:59:01;;;;;;;3.93;2.00;;;14.60;99.90;;;;;;5078153;28;20461;-82
2022/09/16 01:01:28;;;;;;;4.63;1.70;;;14.50;99.90;;;;;;5078637;28;20524;-84
2022/09/16 01:04:01;;;;;;;6.90;1.60;;;14.50;99.90;;;;;;5077768;28;20461;-84
2022/09/16 01:06:29;;;;;;;3.67;1.70;;;14.60;99.90;;;;;;5078466;28;20554;-82
2022/09/16 01:08:57;;;;;;;6.33;2.10;;;14.60;99.90;;;;;;5077402;28;20454;-84
2022/09/16 01:11:24;;;;;;;4.60;1.77;;;14.60;99.90;;;;;;5078541;28;20446;-84
2022/09/16 01:13:52;;;;;;;7.47;2.40;;;14.60;99.90;;;;;;5075966;28;20465;-84
2022/09/16 01:16:26;;;;;;;3.53;1.43;;;14.60;99.90;;;;;;5078209;28;20474;-84
2022/09/16 01:19:05;;;;;;;4.33;1.73;;;14.70;99.90;;;;;;5077339;28;20439;-84
2022/09/16 01:21:43;;;;;;;4.73;1.93;;;14.50;99.90;;;;;;5077528;28;20490;-83
2022/09/16 01:24:50;;;;;;;5.07;1.80;;;14.50;99.90;;;;;;5076996;28;20467;-83
2022/09/16 01:27:32;;;;;;;6.50;1.50;;;14.50;99.90;;;;;;5078060;28;20460;-83
2022/09/16 01:30:17;;;;;;;6.43;1.90;;;14.60;99.90;;;;;;5077439;28;20446;-84
2022/09/16 01:32:57;;;;;;;5.33;1.87;;;14.60;99.90;;;;;;5075308;28;20956;-84
2022/09/16 01:35:34;;;;;;;2.23;1.20;;;14.60;99.90;;;;;;5057556;28;20558;-83
2022/09/16 01:38:10;;;;;;;4.23;1.50;;;14.60;99.90;;;;;;5070244;28;20454;-84
2022/09/16 01:40:49;;;;;;;3.20;1.07;;;14.60;99.90;;;;;;5089918;28;20423;-85
2022/09/16 01:43:20;;;;;;;3.77;1.50;;;14.60;99.90;;;;;;5089459;28;20467;-84
2022/09/16 01:45:55;;;;;;;6.90;1.80;;;14.60;99.90;;;;;;5085825;28;20482;-84
2022/09/16 01:48:32;;;;;;;4.70;1.53;;;14.50;99.90;;;;;;5077343;28;20450;-84
2022/09/16 01:51:03;;;;;;;4.73;1.80;;;14.60;99.90;;;;;;5077503;28;20435;-83
2022/09/16 01:53:35;;;;;;;5.27;2.13;;;14.60;99.90;;;;;;5076122;28;20909;-83
2022/09/16 01:56:08;;;;;;;4.30;1.73;;;14.50;99.90;;;;;;5077575;28;20477;-83
2022/09/16 01:58:40;;;;;;;3.57;1.60;;;14.40;99.90;;;;;;5088516;28;20531;-85
2022/09/16 02:01:12;;;;;;;11.50;1.97;;;14.40;99.90;;;;;;5089310;28;20474;-84
2022/09/16 02:03:45;;;;;;;6.53;1.97;;;14.40;99.90;;;;;;5087015;28;20474;-84
2022/09/16 02:06:17;;;;;;;9.03;1.93;;;14.30;99.90;;;;;;5084081;28;20560;-84
2022/09/16 02:08:48;;;;;;;5.03;1.40;;;14.40;99.90;;;;;;5079481;28;20451;-86
2022/09/16 02:11:17;;;;;;;3.40;1.60;;;14.40;99.90;;;;;;5079990;28;20454;-84
2022/09/16 02:13:49;;;;;;;4.17;1.40;;;14.40;99.90;;;;;;5077820;28;20445;-84
2022/09/16 02:16:22;;;;;;;9.13;1.80;;;14.40;99.90;;;;;;5079125;28;20558;-84
2022/09/16 02:18:54;;;;;;;4.87;1.50;;;14.30;99.90;;;;;;5077705;28;20468;-83
2022/09/16 02:21:23;;;;;;;2.63;1.37;;;14.40;99.90;;;;;;5076687;28;20851;-83
2022/09/16 02:23:53;;;;;;;10.33;1.73;;;14.40;99.90;;;;;;5076148;28;20463;-83
2022/09/16 02:26:24;;;;;;;5.73;1.43;;;14.50;99.90;;;;;;5075991;28;20466;-83
2022/09/16 02:28:53;;;;;;;7.87;1.60;;;14.40;99.90;;;;;;5070065;28;20452;-83
2022/09/16 02:31:25;;;;;;;4.33;1.60;;;14.40;99.90;;;;;;5074922;28;20965;-84
2022/09/16 02:33:57;;;;;;;6.63;1.50;;;14.30;99.90;;;;;;5054432;28;20447;-84
2022/09/16 02:36:27;;;;;;;3.77;1.50;;;14.20;99.90;;;;;;5055376;28;20478;-84
2022/09/16 02:38:56;;;;;;;3.37;1.30;;;14.30;99.90;;;;;;5074324;28;20955;-84
2022/09/16 02:41:23;;;;;;;6.40;1.70;;;14.30;99.90;;;;;;5074026;28;20493;-84
2022/09/16 02:43:50;;;;;;;3.47;1.10;;;14.30;99.90;;;;;;5073996;28;20455;-84
2022/09/16 02:46:24;;;;;;;7.77;1.83;;;14.40;99.90;;;;;;5074871;28;20480;-85
2022/09/16 02:48:59;;;;;;;4.13;1.70;;;14.30;99.90;;;;;;5074458;28;20467;-84
2022/09/16 02:51:33;;;;;;;5.10;1.40;;;14.30;99.90;;;;;;5073951;28;20455;-84
2022/09/16 02:54:07;;;;;;;7.20;1.70;;;14.30;99.90;;;;;;5073606;28;20454;-84
2022/09/16 02:56:38;;;;;;;3.40;1.60;;;14.30;99.90;;;;;;5074169;28;20534;-84
2022/09/16 02:59:07;;;;;;;4.23;1.67;;;14.20;99.90;;;;;;5074414;28;20560;-84
2022/09/16 03:01:40;;;;;;;2.50;1.60;;;14.20;99.90;;;;;;5074065;28;20485;-84
2022/09/16 03:04:08;;;;;;;3.77;1.37;;;14.20;99.90;;;;;;5074036;28;20454;-83
2022/09/16 03:06:35;;;;;;;10.47;1.93;;;14.10;99.90;;;;;;5074215;28;20454;-84
2022/09/16 03:09:05;;;;;;;3.67;1.50;;;14.10;99.90;;;;;;5074405;28;20453;-84
2022/09/16 03:11:52;;;;;;;8.53;1.53;;;14.10;99.90;;;;;;5073363;28;20454;-83
2022/09/16 03:14:35;;;;;;;4.57;1.53;;;14.10;99.90;;;;;;5070951;28;20912;-86
2022/09/16 03:17:12;;;;;;;4.33;1.73;;;14.10;99.90;;;;;;5054554;28;20443;-84
2022/09/16 03:19:52;;;;;;;2.30;1.17;;;14.10;99.90;;;;;;5060602;28;20442;-84
2022/09/16 03:22:27;;;;;;;3.30;1.37;;;14.20;99.90;;;;;;5075416;28;20483;-85
2022/09/16 03:25:05;;;;;;;4.47;1.50;;;14.20;99.90;;;;;;5076031;28;20471;-84
2022/09/16 03:27:40;;;;;;;4.00;1.20;;;14.10;99.90;;;;;;5076221;28;20538;-83
2022/09/16 03:30:10;;;;;;;5.83;1.70;;;14.20;99.90;;;;;;5079054;28;20450;-85
2022/09/16 03:32:43;;;;;;;5.33;1.80;;;14.20;99.90;;;;;;5088288;28;20465;-84
2022/09/16 03:35:17;;;;;;;7.90;1.60;;;14.20;99.90;;;;;;5094920;28;20537;-85
2022/09/16 03:37:46;;;;;;;3.30;1.30;;;14.20;99.90;;;;;;5093815;28;20446;-85
2022/09/16 03:40:15;;;;;;;3.90;1.40;;;14.20;99.90;;;;;;5092390;28;20530;-83
2022/09/16 03:42:44;;;;;;;7.60;1.40;;;14.20;99.90;;;;;;5089704;28;20577;-84
2022/09/16 03:45:15;;;;;;;5.00;1.30;;;14.10;99.90;;;;;;5088593;28;20554;-85
2022/09/16 03:47:42;;;;;;;6.27;1.63;;;14.20;99.90;;;;;;5090574;28;20458;-84
2022/09/16 03:50:10;;;;;;;5.30;1.40;;;14.20;99.90;;;;;;5090290;28;20447;-85
2022/09/16 03:52:38;;;;;;;6.73;1.40;;;14.20;99.90;;;;;;5087688;28;20545;-84
2022/09/16 03:55:05;;;;;;;2.70;1.13;;;14.10;99.90;;;;;;5079722;28;20492;-84
2022/09/16 03:57:33;;;;;;;6.00;1.53;;;14.20;99.90;;;;;;5075290;28;20456;-83
2022/09/16 04:00:00;;;;;;;3.93;1.30;;;14.10;99.90;;;;;;5075017;28;20450;-83
2022/09/16 04:02:27;;;;;;;5.90;1.70;;;14.10;99.90;;;;;;5075245;28;20479;-84
2022/09/16 04:04:53;;;;;;;3.93;1.50;;;14.00;99.90;;;;;;5074735;28;20483;-84
2022/09/16 04:07:22;;;;;;;3.70;1.10;;;13.90;99.90;;;;;;5074781;28;20465;-84
2022/09/16 04:09:48;;;;;;;6.33;1.37;;;14.00;99.90;;;;;;5074459;28;20479;-83
2022/09/16 04:12:15;;;;;;;2.93;1.10;;;13.90;99.90;;;;;;5074505;28;20454;-84
2022/09/16 04:14:42;;;;;;;4.07;1.23;;;14.00;99.90;;;;;;5074086;28;20473;-84
2022/09/16 04:17:09;;;;;;;3.93;1.80;;;14.00;99.90;;;;;;5075219;28;20463;-85
2022/09/16 04:19:36;;;;;;;4.10;1.60;;;14.00;99.90;;;;;;5076007;28;20554;-84
2022/09/16 04:22:02;;;;;;;4.27;1.30;;;14.00;99.90;;;;;;5075980;28;20500;-83
2022/09/16 04:24:31;;;;;;;7.50;1.40;;;14.00;99.90;;;;;;5073234;28;20478;-83
2022/09/16 04:26:58;;;;;;;4.53;1.60;;;14.10;99.90;;;;;;5074958;28;20450;-83
2022/09/16 04:29:25;;;;;;;3.40;1.60;;;14.10;99.90;;;;;;5074156;28;20828;-83
2022/09/16 04:31:51;;;;;;;6.47;1.57;;;14.00;99.90;;;;;;5074820;28;20455;-83
2022/09/16 04:34:18;;;;;;;5.60;1.77;;;14.10;99.90;;;;;;5074116;28;20459;-83
2022/09/16 04:36:45;;;;;;;3.90;1.43;;;14.00;99.90;;;;;;5073505;28;20466;-84
2022/09/16 04:39:12;;;;;;;4.03;1.30;;;14.10;99.90;;;;;;5074832;28;20454;-83
2022/09/16 04:41:40;;;;;;;5.10;1.50;;;14.10;99.90;;;;;;5074804;28;20537;-84
2022/09/16 04:44:07;;;;;;;4.33;1.30;;;14.10;99.90;;;;;;5074057;28;20510;-84
2022/09/16 04:46:34;;;;;;;3.60;2.60;;;14.10;99.90;;;;;;5075533;28;20515;-84
2022/09/16 04:49:01;;;;;;;3.47;1.20;;;14.00;99.90;;;;;;5075168;28;20453;-84
2022/09/16 04:51:29;;;;;;;6.50;1.80;;;14.10;99.90;;;;;;5074838;28;20980;-84
2022/09/16 04:53:57;;;;;;;6.43;1.53;;;14.00;99.90;;;;;;5073545;28;21015;-84
2022/09/16 04:56:26;;;;;;;4.20;2.07;;;14.00;99.90;;;;;;5074915;28;20471;-84
2022/09/16 04:58:56;;;;;;;5.93;2.03;;;13.90;99.90;;;;;;5074037;28;20461;-83
2022/09/16 05:01:24;;;;;;;5.30;1.87;;;13.80;99.90;;;;;;5075144;28;20461;-84
2022/09/16 05:03:53;;;;;;;5.93;2.00;;;13.90;99.90;;;;;;5074828;28;20500;-84
2022/09/16 05:06:22;;;;;;;4.13;1.80;;;13.90;99.90;;;;;;5075457;28;20475;-83
2022/09/16 05:08:50;;;;;;;2.20;1.33;;;13.90;99.90;;;;;;5075645;28;20500;-84
2022/09/16 05:11:19;;;;;;;2.10;1.40;;;13.90;99.90;;;;;;5075170;28;20454;-84
2022/09/16 05:13:46;;;;;;;6.07;1.83;;;13.90;99.90;;;;;;5074652;28;20443;-83
2022/09/16 05:16:16;;;;;;;5.70;1.67;;;14.00;99.90;;;;;;5076169;28;20481;-84
2022/09/16 05:18:45;;;;;;;7.57;2.20;;;14.00;99.90;;;;;;5064582;28;20946;-85
2022/09/16 05:21:14;;;;;;;6.77;2.20;;;13.90;99.90;;;;;;5077651;28;20454;-85
2022/09/16 05:23:42;;;;;;;7.63;2.50;;;13.90;99.90;;;;;;5079945;28;20490;-85
2022/09/16 05:26:11;;;;;;;9.83;2.50;;;13.80;99.90;;;;;;5081085;28;20473;-85
2022/09/16 05:28:39;;;;;;;12.03;2.10;;;13.80;99.90;;;;;;5081957;28;20857;-86
2022/09/16 05:31:10;;;;;;;5.57;1.97;;;13.90;99.90;;;;;;5089452;28;20506;-85
2022/09/16 05:33:39;;;;;;;6.63;2.30;;;14.00;99.90;;;;;;5082492;28;20449;-84
2022/09/16 05:36:07;;;;;;;8.17;2.07;;;13.90;99.90;;;;;;5080313;28;20478;-84
2022/09/16 05:38:34;;;;;;;7.50;2.37;;;13.90;99.90;;;;;;5080935;28;20458;-84
2022/09/16 05:41:01;;;;;;;5.87;2.20;;;13.90;99.90;;;;;;5081034;28;20543;-83
2022/09/16 05:43:28;;;;;;;7.50;2.27;;;13.90;99.90;;;;;;5078646;28;20477;-83
2022/09/16 05:45:55;;;;;;;3.10;1.47;;;13.80;99.90;;;;;;5079168;28;20556;-84
2022/09/16 05:48:23;;;;;;;3.50;1.73;;;13.90;99.90;;;;;;5078710;28;20466;-84
2022/09/16 05:50:56;;;;;;;6.83;2.23;;;13.90;99.90;;;;;;5080390;28;20826;-83
2022/09/16 05:53:25;;;;;;;9.53;2.07;;;13.70;99.90;;;;;;5078897;28;20444;-83
2022/09/16 05:55:56;;;;;;;3.67;1.70;;;13.70;99.90;;;;;;5078999;28;20508;-82
2022/09/16 05:58:23;;;;;;;6.03;2.03;;;13.60;99.90;;;;;;5078661;28;20463;-83
2022/09/16 06:00:50;;;;;;;5.80;2.10;;;13.60;99.90;;;;;;5079585;28;20538;-84
2022/09/16 06:03:17;;;;;;;4.80;2.23;;;13.60;99.90;;;;;;5078173;28;20510;-84
2022/09/16 06:05:44;;;;;;;3.10;1.40;;;13.60;99.90;;;;;;5078576;28;20484;-82
2022/09/16 06:08:12;;;;;;;6.47;1.70;;;13.70;99.90;;;;;;5078687;28;20458;-82
2022/09/16 06:10:39;;;;;;;5.57;1.70;;;13.90;99.90;;;;;;5078457;28;20543;-83
2022/09/16 06:13:07;;;;;;;4.73;1.40;;;13.90;99.90;;;;;;5078102;28;20455;-82
2022/09/16 06:15:34;;;;;;;7.97;2.70;;;13.90;99.90;;;;;;5077601;28;20479;-81
2022/09/16 06:20:36;;;;;;;4.03;1.97;;;13.90;99.90;;;;;;5036164;22;20523;-78
2022/09/16 06:23:03;;;;;;;5.03;1.80;;;13.90;99.90;;;;;;5014960;28;20518;-77
2022/09/16 06:25:33;;;;;;;4.90;1.80;;;14.00;99.90;;;;;;5025041;28;20467;-78
2022/09/16 06:27:59;;;;;;;4.00;2.00;;;14.10;99.90;;;;;;5020843;28;20491;-78
2022/09/16 06:30:26;;;;;;;6.23;2.23;;;14.20;99.90;;;;;;5021956;28;20480;-80
2022/09/16 06:32:53;;;;;;;10.27;2.43;;;14.30;99.90;;;;;;5029985;28;20460;-80
2022/09/16 06:35:20;;;;;;;7.30;2.43;;;14.20;99.90;;;;;;5023803;28;20486;-78
2022/09/16 06:37:47;;;;;;;3.90;2.17;;;14.30;99.90;;;;;;5020941;28;20466;-80
2022/09/16 06:40:13;;;;;;;8.33;2.73;;;14.30;99.90;;;;;;5022240;28;20477;-80
2022/09/16 06:42:42;;;;;;;5.77;2.10;;;14.30;99.90;;;;;;5023612;28;20486;-79
2022/09/16 06:45:09;;;;;;;4.77;2.27;;;14.20;99.90;;;;;;5017422;28;21063;-79
2022/09/16 06:47:36;;;;;;;8.43;3.33;;;14.10;99.90;;;;;;5023173;28;20451;-78
2022/09/16 06:50:04;;;;;;;4.70;2.23;;;14.10;99.90;;;;;;5021353;28;20537;-78
2022/09/16 06:52:31;;;;;;;7.33;2.33;;;14.10;99.90;;;;;;5019053;28;21124;-79
2022/09/16 06:54:58;;;;;;;7.73;3.40;;;14.20;99.90;;;;;;5013688;28;20484;-79
2022/09/16 06:57:25;;;;;;;5.27;2.57;;;14.10;99.90;;;;;;5013164;28;20531;-78
2022/09/16 06:59:53;;;;;;;9.27;2.60;;;14.20;99.90;;;;;;5012513;28;20571;-79
2022/09/16 07:02:20;;;;;;;4.93;2.20;;;14.20;99.90;;;;;;5013635;28;20543;-79
2022/09/16 07:04:47;;;;;;;6.07;2.80;;;14.40;99.90;;;;;;5017848;28;20540;-78
2022/09/16 07:07:16;;;;;;;7.57;2.90;;;14.30;99.90;;;;;;5013259;28;20455;-78
2022/09/16 07:09:42;;;;;;;9.27;2.90;;;14.30;99.90;;;;;;5012634;28;20471;-78
2022/09/16 07:12:09;;;;;;;7.13;2.83;;;14.50;99.90;;;;;;5009842;28;20969;-78
2022/09/16 07:14:39;;;;;;;8.60;3.10;;;14.30;99.90;;;;;;5010358;28;20871;-78
2022/09/16 07:17:07;;;;;;;10.70;4.03;;;14.40;99.90;;;;;;5014050;28;20474;-78
2022/09/16 07:19:34;;;;;;;6.83;3.07;;;14.50;99.90;;;;;;5008025;28;20484;-80
2022/09/16 07:22:01;;;;;;;10.27;3.40;;;14.50;99.90;;;;;;5012256;28;20521;-78
2022/09/16 07:24:28;;;;;;;5.10;3.07;;;14.50;99.90;;;;;;5017047;28;20491;-79
2022/09/16 07:26:54;;;;;;;6.67;2.37;;;14.70;99.90;;;;;;5017651;28;20461;-79
2022/09/16 07:29:21;;;;;;;8.47;3.00;;;14.70;99.90;;;;;;5004417;28;21010;-78
2022/09/16 07:31:48;;;;;;;6.00;3.43;;;14.80;99.90;;;;;;5007925;28;20539;-77
2022/09/16 07:34:16;;;;;;;7.70;2.30;;;14.80;99.90;;;;;;5014200;28;20506;-79
2022/09/16 07:36:47;;;;;;;8.73;3.60;;;14.70;99.90;;;;;;5015368;28;20467;-78
2022/09/16 07:39:15;;;;;;;5.53;2.93;;;14.60;99.90;;;;;;5012346;28;20491;-80
2022/09/16 07:41:44;;;;;;;8.17;2.40;;;14.60;99.90;;;;;;5015261;28;20464;-81
2022/09/16 07:44:13;;;;;;;9.60;2.87;;;14.60;99.90;;;;;;5014019;28;20528;-81
2022/09/16 07:46:40;;;;;;;6.63;2.63;;;14.60;99.90;;;;;;5016743;28;20461;-80
2022/09/16 07:49:09;;;;;;;5.37;3.07;;;14.70;99.90;;;;;;5019532;28;20482;-80
2022/09/16 07:51:37;;;;;;;11.93;3.00;;;14.60;99.90;;;;;;5018132;28;20469;-79
2022/09/16 07:54:07;;;;;;;7.20;2.57;;;14.60;99.90;;;;;;5013080;28;20453;-80
2022/09/16 07:56:35;;;;;;;5.93;2.93;;;14.80;99.90;;;;;;5017107;28;20457;-80
2022/09/16 07:59:04;;;;;;;4.50;1.90;;;14.80;99.90;;;;;;5018473;28;20512;-80
2022/09/16 08:01:31;;;;;;;5.57;2.03;;;15.00;99.90;;;;;;5017694;28;20463;-81
2022/09/16 08:03:59;;;;;;;4.57;3.00;;;15.00;99.90;;;;;;5017363;28;21028;-80
2022/09/16 08:06:28;;;;;;;3.73;2.07;;;15.00;99.90;;;;;;5018005;28;20475;-80
2022/09/16 08:08:59;;;;;;;7.03;2.33;;;15.10;99.90;;;;;;5017736;28;20489;-80
2022/09/16 08:11:27;;;;;;;4.70;2.30;;;15.10;99.90;;;;;;5017982;28;20459;-80
2022/09/16 08:13:54;;;;;;;6.73;2.07;;;15.10;99.90;;;;;;5016676;28;20456;-80
2022/09/16 08:16:22;;;;;;;6.50;1.80;;;15.20;99.90;;;;;;5017803;28;20900;-81
2022/09/16 08:18:51;;;;;;;6.13;1.63;;;15.30;99.90;;;;;;5016625;28;20501;-81
2022/09/16 08:21:20;;;;;;;8.63;3.00;;;15.40;99.90;;;;;;5023807;28;20545;-81
2022/09/16 08:23:48;;;;;;;3.63;1.90;;;15.60;99.90;;;;;;5008091;28;20483;-80
2022/09/16 08:26:17;;;;;;;4.97;2.03;;;15.70;99.90;;;;;;5019869;28;20542;-80
2022/09/16 08:28:45;;;;;;;3.10;1.40;;;15.60;99.90;;;;;;5026415;28;20570;-81
2022/09/16 08:31:12;;;;;;;5.40;2.10;;;15.60;99.90;;;;;;5022251;28;20461;-80
2022/09/16 08:33:40;;;;;;;4.43;1.73;;;15.60;99.90;;;;;;5017576;28;20456;-80
2022/09/16 08:36:10;;;;;;;3.87;1.83;;;15.50;99.90;;;;;;5018875;28;20458;-81
2022/09/16 08:38:37;;;;;;;7.70;2.00;;;15.70;99.90;;;;;;5018334;28;20496;-81
2022/09/16 08:41:14;;;;;;;7.60;2.50;;;15.90;99.90;;;;;;5017891;28;20459;-81
2022/09/16 08:43:47;;;;;;;3.80;1.70;;;15.90;99.90;;;;;;5016623;28;20864;-80
2022/09/16 08:46:19;;;;;;;4.53;1.97;;;16.00;99.90;;;;;;5018239;28;20518;-81
2022/09/16 08:48:54;;;;;;;4.43;2.10;;;16.00;99.90;;;;;;5018773;28;20480;-81
2022/09/16 08:51:22;;;;;;;6.63;2.50;;;15.90;99.90;;;;;;5019439;28;20441;-81
2022/09/16 08:53:54;;;;;;;3.40;2.00;;;15.90;99.90;;;;;;5018979;28;20450;-80
2022/09/16 08:56:24;;;;;;;11.83;1.90;;;15.90;99.90;;;;;;5019753;28;20457;-81
2022/09/16 08:58:56;;;;;;;4.37;1.60;;;15.90;99.90;;;;;;5021495;28;20910;-79
2022/09/16 09:01:34;;;;;;;5.93;1.33;;;15.90;99.90;;;;;;5021046;28;20466;-80
2022/09/16 09:04:02;;;;;;;2.67;1.20;;;15.90;99.90;;;;;;5019969;28;20497;-80
2022/09/16 09:06:54;;;;;;;6.00;2.00;;;16.20;99.90;;;;;;5020253;28;20481;-79
2022/09/16 09:09:34;;;;;;;4.50;1.23;;;16.40;99.90;;;;;;5019039;28;20471;-79
2022/09/16 09:12:06;;;;;;;7.70;1.47;;;16.30;99.90;;;;;;5002023;28;20441;-81
2022/09/16 09:14:44;;;;;;;4.77;1.50;;;16.40;99.90;;;;;;5003054;28;20442;-81
2022/09/16 09:17:21;;;;;;;6.60;1.73;;;16.40;99.90;;;;;;5009406;28;20457;-81
2022/09/16 09:20:00;;;;;;;2.33;1.30;;;16.40;99.90;;;;;;5019601;28;20571;-81
2022/09/16 09:22:41;;;;;;;3.53;1.27;;;16.50;99.90;;;;;;5020447;28;20574;-81
2022/09/16 09:25:24;;;;;;;2.83;1.50;;;16.40;99.90;;;;;;5019394;28;20487;-79
2022/09/16 09:28:02;;;;;;;5.00;1.33;;;16.10;99.90;;;;;;5020922;28;20436;-81
2022/09/16 09:30:34;;;;;;;4.90;1.23;;;15.80;99.90;;;;;;5020063;28;20513;-81
2022/09/16 09:33:13;;;;;;;3.60;1.00;;;15.80;99.90;;;;;;5019028;28;20811;-80
2022/09/16 09:35:55;;;;;;;4.63;1.20;;;15.60;99.90;;;;;;5019514;28;20533;-80
2022/09/16 09:38:38;;;;;;;5.90;1.37;;;15.70;99.90;;;;;;5019513;28;20558;-81
2022/09/16 09:41:11;;;;;;;3.30;1.30;;;15.40;99.90;;;;;;5019619;28;20468;-80
2022/09/16 09:43:46;;;;;;;3.30;1.47;;;15.50;99.90;;;;;;5018624;28;21070;-81
2022/09/16 09:46:22;;;;;;;6.40;1.77;;;15.50;99.90;;;;;;5020189;28;20479;-81
2022/09/16 09:48:55;;;;;;;6.73;2.17;;;15.50;99.90;;;;;;5020850;28;20471;-81
2022/09/16 09:51:27;;;;;;;4.07;1.20;;;15.50;99.90;;;;;;5020550;28;20449;-81
2022/09/16 09:54:00;;;;;;;2.93;1.30;;;15.50;99.90;;;;;;5025154;28;20433;-79
2022/09/16 09:56:31;;;;;;;4.50;1.53;;;15.50;99.90;;;;;;5020162;28;20545;-80
2022/09/16 09:59:03;;;;;;;2.90;1.53;;;15.70;99.90;;;;;;5019385;28;20468;-80
2022/09/16 10:01:31;;;;;;;3.80;1.20;;;16.10;99.90;;;;;;5019955;28;20437;-80
2022/09/16 10:03:59;;;;;;;3.20;1.40;;;16.10;99.90;;;;;;5019124;28;20575;-82
2022/09/16 10:06:29;;;;;;;5.77;1.70;;;16.10;99.90;;;;;;5019001;28;20576;-79
2022/09/16 10:08:57;;;;;;;6.20;1.70;;;16.20;99.90;;;;;;5019206;28;21012;-80
2022/09/16 10:11:27;;;;;;;4.30;1.40;;;16.20;99.90;;;;;;5019386;28;20460;-81
2022/09/16 10:13:56;;;;;;;3.90;1.03;;;16.40;99.90;;;;;;5016488;28;20456;-80
2022/09/16 10:16:28;;;;;;;3.10;1.00;;;16.50;99.90;;;;;;5019986;28;20542;-81
2022/09/16 10:19:02;;;;;;;3.43;1.03;;;16.40;99.90;;;;;;5018061;28;21196;-79
2022/09/16 10:21:41;;;;;;;5.97;1.87;;;16.30;99.90;;;;;;5019309;28;20436;-80
2022/09/16 10:24:27;;;;;;;2.67;0.90;;;16.40;99.90;;;;;;5016963;28;20994;-81
2022/09/16 10:26:54;;;;;;;2.40;0.87;;;16.90;99.90;;;;;;5018070;28;20898;-81
2022/09/16 10:29:21;;;;;;;5.33;2.07;;;17.30;99.90;;;;;;5018547;28;21019;-77
2022/09/16 10:31:48;;;;;;;3.93;1.10;;;18.00;99.90;;;;;;5017914;28;20814;-80
2022/09/16 10:34:21;;;;;;;5.20;2.03;;;18.40;99.90;;;;;;5016311;28;20471;-79
2022/09/16 10:37:00;;;;;;;5.17;1.50;;;18.30;99.90;;;;;;5014314;28;20453;-79
2022/09/16 10:39:28;;;;;;;3.37;1.00;;;18.20;99.90;;;;;;5020209;28;20470;-79
2022/09/16 10:41:55;;;;;;;4.47;1.20;;;18.00;99.90;;;;;;5020361;28;20459;-83
2022/09/16 10:44:25;;;;;;;3.87;1.20;;;17.50;99.90;;;;;;5016484;28;20503;-79
2022/09/16 10:46:56;;;;;;;8.40;1.50;;;17.50;99.90;;;;;;5014163;28;20455;-81
2022/09/16 10:49:29;;;;;;;3.87;1.03;;;17.40;99.90;;;;;;5019017;28;20512;-80
2022/09/16 10:52:06;;;;;;;10.17;1.60;;;18.10;99.90;;;;;;5018670;28;20452;-81
2022/09/16 10:54:33;;;;;;;4.90;1.00;;;18.50;99.90;;;;;;5017779;28;20437;-81
2022/09/16 10:56:59;;;;;;;3.77;1.03;;;18.10;99.90;;;;;;5017969;28;20469;-81
2022/09/16 10:59:26;;;;;;;2.87;0.90;;;18.20;99.90;;;;;;5018896;28;20914;-79
2022/09/16 11:02:03;;;;;;;4.30;1.00;;;18.30;99.90;;;;;;5018227;28;20473;-80
2022/09/16 11:05:00;;;;;;;7.17;1.30;;;18.20;99.90;;;;;;5016982;28;20490;-81
2022/09/16 11:07:37;;;;;;;2.90;1.07;;;18.20;99.90;;;;;;5019373;28;20473;-80
2022/09/16 11:10:22;;;;;;;7.13;3.10;;;18.30;99.90;;;;;;5018464;28;20498;-80
2022/09/16 11:13:28;;;;;;;6.00;1.90;;;18.40;99.90;;;;;;5016314;28;20594;-81
2022/09/16 11:16:15;;;;;;;10.07;2.17;;;18.70;99.90;;;;;;5009224;28;20462;-81
2022/09/16 11:18:53;;;;;;;4.63;1.30;;;18.70;99.90;;;;;;5028805;28;20479;-80
2022/09/16 11:21:54;;;;;;;3.70;1.90;;;18.60;99.90;;;;;;5038604;28;20451;-82
2022/09/16 11:24:52;;;;;;;10.00;3.63;;;18.50;99.90;;;;;;5030730;28;20486;-81
2022/09/16 11:27:30;;;;;;;5.57;1.87;;;18.30;99.90;;;;;;5022296;28;20547;-81
2022/09/16 11:30:13;;;;;;;3.60;1.73;;;19.10;99.90;;;;;;5020369;28;20472;-81
2022/09/16 11:33:00;;;;;;;4.77;1.77;;;19.70;99.90;;;;;;5016361;28;20468;-81
2022/09/16 11:35:39;;;;;;;5.80;1.30;;;20.40;99.90;;;;;;5025471;28;20466;-81
2022/09/16 11:38:16;;;;;;;4.30;1.20;;;21.10;99.90;;;;;;5000267;28;20443;-82
2022/09/16 11:40:47;;;;;;;4.40;1.17;;;21.50;99.90;;;;;;5015937;28;20804;-81
2022/09/16 11:43:40;;;;;;;4.28;1.10;;;21.70;99.90;;;;;;5024449;28;20516;-81
2022/09/16 11:46:14;;;;;;;4.53;0.90;;;21.80;99.90;;;;;;5007816;28;20237;-82
2022/09/16 11:48:54;;;;;;;2.07;1.00;;;22.10;99.90;;;;;;5012837;28;20482;-83
2022/09/16 11:51:34;;;;;;;5.90;1.30;;;21.90;99.90;;;;;;5016433;28;20965;-83
2022/09/16 11:54:22;;;;;;;2.57;0.90;;;21.50;99.90;;;;;;5010107;28;20456;-83
2022/09/16 11:56:53;;;;;;;3.10;1.30;;;21.70;99.90;;;;;;5018532;28;20463;-82
2022/09/16 11:59:30;;;;;;;3.77;1.03;;;21.70;99.90;;;;;;5021519;28;20468;-81
2022/09/16 12:02:05;;;;;;;3.40;1.00;;;21.10;99.90;;;;;;5009131;28;20445;-82
2022/09/16 12:04:35;;;;;;;4.70;1.20;;;20.30;99.90;;;;;;5009432;28;20508;-80
2022/09/16 12:07:09;;;;;;;5.70;1.10;;;19.50;99.90;;;;;;5011278;28;20457;-80
2022/09/16 12:09:42;;;;;;;3.50;1.00;;;19.20;99.90;;;;;;5009258;28;20874;-81
2022/09/16 12:12:13;;;;;;;4.57;1.40;;;18.20;99.90;;;;;;5007018;28;20461;-81
2022/09/16 12:14:43;;;;;;;6.83;1.50;;;17.60;99.90;;;;;;5005914;28;20450;-81
2022/09/16 12:17:17;;;;;;;7.60;1.57;;;17.10;99.90;;;;;;5017294;28;20461;-82
2022/09/16 12:19:51;;;;;;;4.87;1.83;;;16.60;99.90;;;;;;5006341;28;21281;-79
2022/09/16 12:22:26;;;;;;;6.40;1.47;;;16.50;99.90;;;;;;5006168;28;20469;-80
2022/09/16 12:25:04;;;;;;;3.30;1.10;;;17.30;99.90;;;;;;5007267;28;20494;-80
2022/09/16 12:27:46;;;;;;;5.13;1.00;;;17.80;99.90;;;;;;5010258;28;20516;-79
2022/09/16 12:30:16;;;;;;;4.47;1.00;;;18.00;99.90;;;;;;5013746;28;20930;-80
2022/09/16 12:32:52;;;;;;;4.53;1.10;;;18.20;99.90;;;;;;5019198;28;20455;-80
2022/09/16 12:35:24;;;;;;;3.97;0.90;;;17.80;99.90;;;;;;5016990;28;20489;-80
2022/09/16 12:37:53;;;;;;;2.83;0.90;;;17.30;99.90;;;;;;5023341;28;20451;-79
2022/09/16 12:40:25;;;;;;;5.20;1.10;;;16.60;99.90;;;;;;5019973;28;20476;-80
2022/09/16 12:43:28;;;;;;;3.20;0.90;;;16.00;99.90;;;;;;5020175;28;20836;-81
2022/09/16 12:46:27;;;;;;;2.67;0.90;;;15.50;99.90;;;;;;5026506;28;20503;-80
2022/09/16 12:49:18;;;;;;;4.57;1.17;;;15.10;99.90;;;;;;5011261;28;20544;-81
2022/09/16 12:52:13;;;;;;;4.43;1.50;;;14.70;99.90;;;;;;5020117;28;20491;-82
2022/09/16 12:55:13;;;;;;;2.60;0.97;;;14.40;99.90;;;;;;5005463;28;20464;-80
2022/09/16 12:57:54;;;;;;;2.67;1.07;;;14.10;99.90;;;;;;4998910;28;20456;-81
2022/09/16 13:00:24;;;;;;;5.77;1.20;;;13.90;99.90;;;;;;5016000;28;20567;-80
2022/09/16 13:02:54;;;;;;;6.17;1.10;;;13.70;99.90;;;;;;5012801;28;21154;-81
2022/09/16 13:05:26;;;;;;;1.70;0.80;;;13.50;99.90;;;;;;5016300;28;20554;-82
2022/09/16 13:07:56;;;;;;;3.60;1.73;;;13.30;99.90;;;;;;5030294;28;20484;-81
2022/09/16 13:10:31;;;;;;;5.23;1.30;;;13.50;99.90;;;;;;5021184;28;20480;-81
2022/09/16 13:13:02;;;;;;;2.33;0.80;;;13.30;99.90;;;;;;5024945;28;20563;-83